Jack Frost Big Boulder | Where snow comes first

www.jfbb.com/

Snow Report: 24-Hours: " | Base: 24-48" | Trails: Jack Frost: 0 - Big Boulder: 0 | Lifts: Jack Frost: 0 - Big Boulder: 0 | Full Report » · Home · HoursSnow ...

Resources - Philadelphia, PA CPA / GPCD, LLC

www.gpcdcpa.com/resources.php

... a look at these outstanding "Must Read" business books. News and Weather Take a look at the weather forecast as well as the latest breaking news stories.

Inclement Weather Policy - GCVSA

www.gcvsa.org/weather_policy.php

Current weather conditions and the latest forecast will be taken into consideration . For safety reasons as well as field conditions, there are times when the fields ...

SAI Weather Advisor, Metar Report.

www.saiawos2.com/K78/MetarReport.php

METAR KK78 011656Z AUTO 19013KT 10SM CLR 31/18 A2997 A02, 2461. METAR KK78 011556Z AUTO 19012KT 10SM CLR 29/18 A2998 A02, 2460.

Widener University | Weather Alert

www.widener.edu/news-events/weatheralert/

Weather Alert. Faculty ... All essential personnel should report as scheduled. Last Updated: ... One University Place; Chester, PA 19013; 1-888-WIDENER.

Helpful Resources

Chester Township, PA News » Topix

www.topix.com

Aug 22, 2015 ... News · Forums · Today's Weather: Mostly Cloudy. 92°F | 73°F ... in Delaware County. Zip codes in Chester Township, PA include 19013.

Haverford College Weather Updates

storm.haverford.edu

This site will be continuously updated in the event of a weather emergency that impacts ... Non-essential staff should report to work 2 hours later than scheduled.

Weather — Brandywine Airport (KOQN)

koqn.net

UNISYS WXP. Links to Aviation weather related sites. AOPA Icon AOPA TFR and Security Notams; FAA logo Pilot Web ( Current Notams and Weather links ) ...

Breaking news on Chester County, PA - breakingnews.com

www.breakingnews.com

National Weather Service confirms EF-1 tornado touched down in Chester County ... 144,000 customers without power in southeast Pennsylvania, PECO reports.

forecast and more - World Time Server

www.worldtimeserver.com

Current time and temperature in Dover, Delaware, United States with forecasted weather conditions from WorldTimeServer.com.